createdAt,value
2023-02-15T00:02:08.902Z,3.06
2023-02-15T00:04:49.090Z,3.06
2023-02-15T00:07:20.453Z,3.16
2023-02-15T00:09:48.894Z,3.20
2023-02-15T00:12:17.789Z,3.21
2023-02-15T00:14:46.118Z,3.20
2023-02-15T00:17:14.074Z,3.19
2023-02-15T00:19:42.118Z,3.08
2023-02-15T00:22:10.387Z,3.04
2023-02-15T00:24:39.611Z,2.99
2023-02-15T00:27:07.533Z,2.91
2023-02-15T00:29:35.376Z,2.88
2023-02-15T00:32:03.294Z,2.83
2023-02-15T00:34:31.226Z,2.78
2023-02-15T00:36:59.292Z,2.75
2023-02-15T00:39:28.345Z,2.73
2023-02-15T00:41:57.662Z,2.71
2023-02-15T00:44:25.589Z,2.70
2023-02-15T00:46:53.482Z,2.68
2023-02-15T00:49:22.397Z,2.58
2023-02-15T00:51:50.294Z,2.58
2023-02-15T00:54:18.254Z,2.56
2023-02-15T00:56:46.074Z,2.56
2023-02-15T00:59:15.502Z,2.57
2023-02-15T01:01:43.385Z,2.56
2023-02-15T01:04:11.344Z,2.49
2023-02-15T01:06:39.271Z,2.51
2023-02-15T01:09:07.301Z,2.43
2023-02-15T01:11:35.238Z,2.43
2023-02-15T01:14:04.148Z,2.40
2023-02-15T01:16:33.483Z,2.35
2023-02-15T01:19:03.470Z,2.43
2023-02-15T01:21:35.353Z,2.44
2023-02-15T01:24:04.495Z,2.40
2023-02-15T01:26:32.434Z,2.39
2023-02-15T01:29:00.493Z,2.37
2023-02-15T01:31:28.457Z,2.31
2023-02-15T01:33:57.894Z,2.25
2023-02-15T01:36:25.990Z,2.18
2023-02-15T01:38:53.897Z,2.13
2023-02-15T01:41:23.697Z,2.09
2023-02-15T01:43:54.177Z,2.09
2023-02-15T01:46:26.631Z,2.06
2023-02-15T01:48:59.658Z,2.04
2023-02-15T01:51:31.331Z,2.01
2023-02-15T01:54:03.711Z,1.98
2023-02-15T01:56:35.537Z,1.84
2023-02-15T01:59:09.900Z,1.84
2023-02-15T02:01:38.499Z,1.87
2023-02-15T02:04:14.362Z,1.91
2023-02-15T02:06:42.378Z,1.92
2023-02-15T02:09:11.304Z,1.86
2023-02-15T02:11:41.321Z,1.88
2023-02-15T02:14:10.001Z,1.95
2023-02-15T02:16:45.275Z,1.97
2023-02-15T02:19:40.773Z,1.98
2023-02-15T02:22:42.239Z,1.98
2023-02-15T02:25:51.332Z,1.96
2023-02-15T02:28:43.850Z,1.96
2023-02-15T02:31:38.192Z,1.97
2023-02-15T02:34:15.451Z,1.96
2023-02-15T02:36:50.273Z,1.92
2023-02-15T02:39:32.215Z,1.77
2023-02-15T02:42:07.819Z,1.68
2023-02-15T02:44:44.911Z,1.66
2023-02-15T02:47:18.371Z,1.70
2023-02-15T02:49:47.646Z,1.73
2023-02-15T02:52:38.495Z,1.72
2023-02-15T02:55:11.694Z,1.77
2023-02-15T02:57:44.576Z,1.67
2023-02-15T03:00:16.744Z,1.62
2023-02-15T03:02:49.966Z,1.53
2023-02-15T03:05:26.220Z,1.55
2023-02-15T03:07:57.927Z,1.62
2023-02-15T03:10:28.353Z,1.50
2023-02-15T03:12:56.329Z,1.29
2023-02-15T03:15:49.019Z,1.13
2023-02-15T03:18:19.246Z,1.21
2023-02-15T03:20:49.859Z,1.30
2023-02-15T03:23:21.823Z,1.32
2023-02-15T03:25:54.360Z,1.26
2023-02-15T03:28:31.117Z,1.36
2023-02-15T03:31:03.001Z,1.41
2023-02-15T03:33:31.805Z,1.44
2023-02-15T03:36:06.933Z,1.45
2023-02-15T03:38:44.285Z,1.45
2023-02-15T03:41:15.147Z,1.36
2023-02-15T03:43:50.196Z,1.44
2023-02-15T03:46:26.564Z,1.43
2023-02-15T03:48:56.505Z,1.39
2023-02-15T03:51:39.124Z,1.39
2023-02-15T03:54:10.609Z,1.22
2023-02-15T03:56:40.743Z,1.36
2023-02-15T03:59:26.358Z,1.24
2023-02-15T04:02:11.974Z,1.17
2023-02-15T04:04:43.116Z,1.20
2023-02-15T04:07:12.945Z,1.23
2023-02-15T04:09:58.294Z,1.27
2023-02-15T04:12:26.246Z,1.30
2023-02-15T04:15:11.749Z,1.19
2023-02-15T04:17:40.174Z,1.02
2023-02-15T04:20:27.808Z,0.95
2023-02-15T04:23:14.394Z,1.03
2023-02-15T04:25:42.305Z,1.13
2023-02-15T04:28:10.715Z,1.12
2023-02-15T04:30:38.714Z,1.20
2023-02-15T04:33:06.657Z,1.22
2023-02-15T04:35:34.593Z,1.19
2023-02-15T04:38:04.018Z,1.23
2023-02-15T04:40:32.184Z,1.24
2023-02-15T04:43:00.146Z,1.26
2023-02-15T04:45:28.190Z,1.24
2023-02-15T04:47:56.231Z,1.23
2023-02-15T04:50:24.226Z,1.13
2023-02-15T04:52:54.698Z,1.14
2023-02-15T04:55:24.110Z,1.10
2023-02-15T04:57:51.968Z,1.09
2023-02-15T05:00:20.557Z,1.13
2023-02-15T05:02:48.503Z,1.14
2023-02-15T05:05:16.583Z,1.12
2023-02-15T05:07:44.443Z,1.14
2023-02-15T05:10:12.563Z,1.12
2023-02-15T05:12:42.132Z,1.09
2023-02-15T05:15:10.869Z,1.09
2023-02-15T05:17:38.914Z,1.07
2023-02-15T05:20:08.445Z,1.04
2023-02-15T05:22:36.558Z,1.03
2023-02-15T05:25:22.229Z,1.02
2023-02-15T05:28:09.210Z,0.99
2023-02-15T05:30:37.491Z,0.98
2023-02-15T05:33:05.433Z,0.94
2023-02-15T05:35:33.861Z,0.94
2023-02-15T05:38:01.810Z,0.92
2023-02-15T05:40:29.679Z,0.94
2023-02-15T05:42:59.656Z,0.96
2023-02-15T05:45:27.755Z,0.99
2023-02-15T05:47:55.954Z,0.98
2023-02-15T05:50:23.755Z,0.98
2023-02-15T05:52:52.561Z,0.95
2023-02-15T05:55:20.972Z,0.86
2023-02-15T05:57:48.988Z,0.86
2023-02-15T06:00:20.379Z,0.86
2023-02-15T06:02:48.301Z,0.90
2023-02-15T06:05:16.349Z,0.93
2023-02-15T06:07:45.251Z,0.97
2023-02-15T06:10:13.842Z,0.91
2023-02-15T06:12:41.861Z,0.94
2023-02-15T06:15:10.646Z,0.91
2023-02-15T06:17:39.982Z,0.89
2023-02-15T06:20:09.306Z,0.91
2023-02-15T06:22:37.281Z,0.95
2023-02-15T06:25:05.608Z,0.99
2023-02-15T06:27:33.722Z,1.02
2023-02-15T06:30:01.687Z,1.05
2023-02-15T06:32:30.121Z,1.06
2023-02-15T06:34:59.486Z,1.08
2023-02-15T06:37:27.407Z,1.10
2023-02-15T06:39:55.299Z,1.12
2023-02-15T06:42:23.616Z,1.14
2023-02-15T06:44:51.717Z,1.13
2023-02-15T06:47:19.557Z,1.12
2023-02-15T06:49:47.411Z,1.10
2023-02-15T06:52:16.687Z,1.06
2023-02-15T06:54:44.516Z,1.16
2023-02-15T06:57:12.445Z,1.09
2023-02-15T06:59:40.358Z,1.17
2023-02-15T07:02:08.322Z,1.21
2023-02-15T07:04:36.756Z,1.24
2023-02-15T07:07:04.724Z,1.23
2023-02-15T07:09:34.052Z,1.29
2023-02-15T07:12:19.664Z,1.25
2023-02-15T07:14:47.550Z,1.31
2023-02-15T07:17:35.094Z,1.37
2023-02-15T07:20:03.850Z,1.43
2023-02-15T07:22:31.828Z,1.37
2023-02-15T07:25:01.093Z,1.54
2023-02-15T07:27:28.954Z,1.59
2023-02-15T07:29:56.904Z,1.63
2023-02-15T07:32:24.929Z,1.66
2023-02-15T07:34:52.866Z,1.65
2023-02-15T07:37:20.786Z,1.67
2023-02-15T07:39:48.676Z,1.69
2023-02-15T07:42:18.863Z,1.48
2023-02-15T07:44:48.212Z,1.30
2023-02-15T07:47:16.265Z,1.19
2023-02-15T07:49:44.282Z,1.09
2023-02-15T07:52:12.281Z,1.16
2023-02-15T07:54:40.285Z,1.07
2023-02-15T07:57:08.248Z,1.07
2023-02-15T07:59:37.532Z,1.06
2023-02-15T08:02:07.243Z,1.07
2023-02-15T08:04:35.086Z,1.22
2023-02-15T08:07:02.870Z,1.38
2023-02-15T08:09:30.776Z,1.59
2023-02-15T08:11:58.655Z,1.72
2023-02-15T08:14:26.579Z,1.93
2023-02-15T08:16:57.286Z,2.05
2023-02-15T08:19:26.584Z,2.19
2023-02-15T08:21:57.822Z,2.27
2023-02-15T08:24:28.325Z,2.29
2023-02-15T08:26:56.728Z,2.40
2023-02-15T08:29:26.570Z,2.43
2023-02-15T08:31:59.673Z,2.46
2023-02-15T08:34:28.073Z,2.52
2023-02-15T08:36:56.014Z,2.59
2023-02-15T08:39:24.351Z,2.63
2023-02-15T08:41:52.280Z,2.56
2023-02-15T08:44:21.476Z,2.43
2023-02-15T08:46:50.722Z,2.38
2023-02-15T08:49:21.964Z,2.26
2023-02-15T08:51:51.229Z,2.22
2023-02-15T08:54:21.578Z,2.32
2023-02-15T08:56:49.960Z,2.38
2023-02-15T08:59:19.977Z,2.43
2023-02-15T09:01:48.662Z,2.42
2023-02-15T09:04:17.255Z,2.50
2023-02-15T09:06:49.184Z,2.64
2023-02-15T09:09:17.601Z,2.76
2023-02-15T09:11:48.353Z,2.86
2023-02-15T09:14:18.393Z,2.96
2023-02-15T09:16:49.590Z,3.06
2023-02-15T09:19:18.434Z,3.13
2023-02-15T09:21:47.836Z,3.20
2023-02-15T09:24:17.416Z,3.26
2023-02-15T09:26:48.513Z,3.31
2023-02-15T09:29:18.018Z,3.36
2023-02-15T09:31:49.621Z,3.33
2023-02-15T09:34:19.682Z,3.45
2023-02-15T09:36:49.241Z,3.47
2023-02-15T09:39:19.511Z,3.51
2023-02-15T09:42:06.498Z,3.54
2023-02-15T09:44:48.859Z,3.49
2023-02-15T09:47:38.270Z,3.55
2023-02-15T09:50:20.236Z,3.54
2023-02-15T09:53:14.365Z,3.59
2023-02-15T09:55:53.260Z,3.62
2023-02-15T09:58:31.256Z,3.60
2023-02-15T10:01:05.730Z,3.67
2023-02-15T10:03:52.768Z,3.70
2023-02-15T10:06:42.822Z,3.69
2023-02-15T10:09:26.926Z,3.76
2023-02-15T10:12:09.348Z,3.82
2023-02-15T10:14:57.965Z,3.89
2023-02-15T10:17:41.597Z,3.91
2023-02-15T10:20:20.036Z,3.96
2023-02-15T10:23:00.934Z,4.00
2023-02-15T10:25:42.381Z,4.04
2023-02-15T10:28:19.569Z,4.09
2023-02-15T10:30:51.484Z,4.15
2023-02-15T10:33:40.095Z,4.20
2023-02-15T10:36:28.959Z,4.25
2023-02-15T10:39:04.357Z,4.30
2023-02-15T10:41:47.147Z,4.34
2023-02-15T10:44:35.805Z,4.42
2023-02-15T10:47:19.283Z,4.49
2023-02-15T10:50:02.650Z,4.57
2023-02-15T10:52:43.121Z,4.63
2023-02-15T10:55:20.742Z,4.67
2023-02-15T10:58:01.250Z,4.72
2023-02-15T11:00:40.162Z,4.78
2023-02-15T11:03:23.574Z,4.81
2023-02-15T11:06:02.138Z,4.75
2023-02-15T11:08:33.688Z,4.86
2023-02-15T11:11:06.305Z,4.87
2023-02-15T11:13:40.805Z,4.92
2023-02-15T11:16:13.553Z,4.95
2023-02-15T11:18:46.462Z,4.94
2023-02-15T11:21:22.654Z,4.93
2023-02-15T11:23:51.308Z,4.93
2023-02-15T11:26:26.069Z,4.97
2023-02-15T11:28:59.327Z,4.96
2023-02-15T11:31:31.473Z,4.96
2023-02-15T11:34:05.286Z,4.99
2023-02-15T11:36:38.102Z,5.00
2023-02-15T11:39:11.742Z,5.07
2023-02-15T11:41:43.551Z,5.08
2023-02-15T11:44:21.809Z,5.11
2023-02-15T11:46:49.714Z,5.10
2023-02-15T11:49:25.798Z,5.14
2023-02-15T11:51:55.147Z,5.08
2023-02-15T11:54:28.788Z,5.17
2023-02-15T11:56:58.102Z,5.20
2023-02-15T11:59:34.310Z,5.23
2023-02-15T12:02:02.320Z,5.28
2023-02-15T12:04:35.009Z,5.31
2023-02-15T12:07:08.726Z,5.31
2023-02-15T12:09:40.522Z,5.33
2023-02-15T12:12:24.121Z,5.38
2023-02-15T12:14:55.446Z,5.43
2023-02-15T12:17:26.118Z,5.46
2023-02-15T12:19:57.151Z,5.46
2023-02-15T12:22:27.709Z,5.38
2023-02-15T12:24:58.530Z,5.43
2023-02-15T12:27:29.179Z,5.43
2023-02-15T12:30:03.262Z,5.46
2023-02-15T12:32:36.884Z,5.48
2023-02-15T12:35:15.504Z,5.47
2023-02-15T12:37:56.956Z,5.57
2023-02-15T12:40:26.924Z,5.60
2023-02-15T12:42:54.746Z,5.64
2023-02-15T12:45:27.229Z,5.70
2023-02-15T12:48:16.795Z,5.74
2023-02-15T12:50:46.195Z,5.81
2023-02-15T12:53:21.003Z,5.80
2023-02-15T12:55:54.649Z,5.92
2023-02-15T12:58:26.096Z,5.95
2023-02-15T13:01:13.771Z,6.02
2023-02-15T13:03:57.487Z,6.13
2023-02-15T13:06:25.834Z,6.21
2023-02-15T13:08:59.558Z,6.29
2023-02-15T13:11:35.012Z,6.32
2023-02-15T13:14:05.322Z,6.39
2023-02-15T13:16:38.497Z,6.45
2023-02-15T13:19:12.982Z,6.58
2023-02-15T13:21:44.079Z,6.70
2023-02-15T13:24:20.934Z,6.71
2023-02-15T13:26:49.790Z,6.76
2023-02-15T13:29:23.347Z,6.80
2023-02-15T13:31:54.883Z,6.77
2023-02-15T13:34:27.516Z,6.89
2023-02-15T13:37:04.931Z,6.92
2023-02-15T13:39:40.493Z,6.93
2023-02-15T13:42:22.575Z,6.95
2023-02-15T13:45:11.356Z,7.00
2023-02-15T13:47:47.756Z,7.09
2023-02-15T13:50:49.674Z,7.08
2023-02-15T13:53:43.299Z,7.06
2023-02-15T13:56:18.407Z,7.04
2023-02-15T13:59:04.899Z,7.04
2023-02-15T14:01:41.512Z,7.06
2023-02-15T14:04:41.788Z,6.97
2023-02-15T14:07:26.588Z,6.98
2023-02-15T14:10:04.828Z,6.98
2023-02-15T14:12:48.086Z,6.94
2023-02-15T14:15:29.660Z,6.99
2023-02-15T14:18:11.395Z,6.99
2023-02-15T14:20:52.526Z,7.02
2023-02-15T14:23:37.079Z,6.98
2023-02-15T14:26:12.335Z,6.98
2023-02-15T14:28:47.680Z,6.99
2023-02-15T14:31:17.705Z,6.99
2023-02-15T14:33:55.794Z,7.05
2023-02-15T14:36:27.291Z,7.03
2023-02-15T14:39:32.661Z,7.06
2023-02-15T14:42:04.189Z,7.04
2023-02-15T14:44:39.457Z,7.04
2023-02-15T14:47:13.174Z,7.05
2023-02-15T14:49:41.835Z,7.07
2023-02-15T14:52:13.543Z,7.02
2023-02-15T14:54:59.398Z,6.99
2023-02-15T14:57:34.126Z,7.03
2023-02-15T15:00:09.169Z,7.03
2023-02-15T15:02:49.922Z,7.03
2023-02-15T15:05:21.869Z,6.87
2023-02-15T15:07:54.797Z,6.75
2023-02-15T15:10:38.704Z,6.68
2023-02-15T15:13:42.346Z,6.77
2023-02-15T15:16:43.687Z,6.72
2023-02-15T15:19:13.633Z,6.66
2023-02-15T15:22:05.547Z,6.57
2023-02-15T15:24:55.243Z,6.49
2023-02-15T15:27:46.647Z,6.34
2023-02-15T15:31:02.630Z,6.19
2023-02-15T15:34:01.921Z,6.11
2023-02-15T15:37:19.678Z,6.01
2023-02-15T15:40:40.973Z,5.89
2023-02-15T15:43:34.663Z,5.76
2023-02-15T15:46:22.856Z,5.60
2023-02-15T15:48:51.296Z,5.50
2023-02-15T15:51:22.747Z,5.34
2023-02-15T15:53:54.273Z,5.24
2023-02-15T15:56:26.616Z,5.04
2023-02-15T15:58:57.980Z,4.98
2023-02-15T16:01:30.912Z,4.72
2023-02-15T16:04:00.991Z,4.57
2023-02-15T16:06:36.785Z,4.42
2023-02-15T16:09:17.527Z,4.44
2023-02-15T16:11:48.592Z,4.39
2023-02-15T16:14:21.322Z,4.29
2023-02-15T16:16:53.050Z,4.22
2023-02-15T16:19:28.140Z,4.20
2023-02-15T16:21:59.510Z,4.05
2023-02-15T16:24:47.783Z,4.16
2023-02-15T16:27:41.769Z,4.14
2023-02-15T16:30:30.028Z,4.07
2023-02-15T16:33:06.473Z,4.04
2023-02-15T16:35:35.412Z,4.03
2023-02-15T16:38:04.118Z,4.03
2023-02-15T16:40:48.148Z,4.00
2023-02-15T16:43:22.407Z,4.00
2023-02-15T16:45:50.902Z,3.99
2023-02-15T16:48:23.083Z,3.94
2023-02-15T16:50:55.151Z,3.94
2023-02-15T16:53:26.215Z,3.88
2023-02-15T16:55:57.373Z,3.86
2023-02-15T16:58:39.093Z,3.83
2023-02-15T17:01:10.735Z,3.82
2023-02-15T17:03:39.162Z,3.79
2023-02-15T17:06:22.504Z,3.77
2023-02-15T17:08:50.705Z,3.74
2023-02-15T17:11:20.851Z,3.72
2023-02-15T17:14:16.351Z,3.72
2023-02-15T17:16:50.006Z,3.71
2023-02-15T17:19:21.443Z,3.65
2023-02-15T17:21:52.676Z,3.65
2023-02-15T17:24:26.925Z,3.65
2023-02-15T17:27:01.376Z,3.64
2023-02-15T17:29:36.172Z,3.62
2023-02-15T17:32:05.926Z,3.58
2023-02-15T17:34:50.431Z,3.57
2023-02-15T17:37:28.888Z,3.56
2023-02-15T17:40:00.632Z,3.51
2023-02-15T17:42:28.686Z,3.46
2023-02-15T17:44:57.854Z,3.44
2023-02-15T17:47:27.762Z,3.43
2023-02-15T17:49:55.823Z,3.40
2023-02-15T17:52:25.030Z,3.36
2023-02-15T17:55:10.319Z,3.33
2023-02-15T17:57:38.661Z,3.33
2023-02-15T18:00:28.081Z,3.30
2023-02-15T18:03:13.568Z,3.32
2023-02-15T18:05:58.968Z,3.29
2023-02-15T18:08:46.857Z,3.24
2023-02-15T18:11:32.495Z,3.22
2023-02-15T18:14:01.460Z,3.22
2023-02-15T18:16:34.201Z,3.20
2023-02-15T18:19:04.801Z,3.18
2023-02-15T18:21:33.823Z,3.16
2023-02-15T18:24:02.860Z,3.15
2023-02-15T18:26:31.026Z,3.12
2023-02-15T18:28:58.824Z,3.05
2023-02-15T18:31:27.055Z,3.06
2023-02-15T18:33:59.130Z,3.04
2023-02-15T18:36:30.209Z,3.02
2023-02-15T18:38:58.422Z,3.02
2023-02-15T18:41:26.365Z,3.00
2023-02-15T18:43:55.478Z,2.98
2023-02-15T18:46:23.753Z,2.97
2023-02-15T18:48:51.655Z,2.95
2023-02-15T18:51:22.677Z,2.90
2023-02-15T18:53:52.884Z,2.89
2023-02-15T18:56:23.402Z,2.87
2023-02-15T18:58:51.335Z,2.85
2023-02-15T19:01:21.658Z,2.80
2023-02-15T19:03:51.208Z,2.81
2023-02-15T19:06:23.053Z,2.83
2023-02-15T19:08:53.460Z,2.78
2023-02-15T19:11:25.639Z,2.75
2023-02-15T19:13:55.010Z,2.67
2023-02-15T19:16:29.510Z,2.57
2023-02-15T19:18:57.820Z,2.47
2023-02-15T19:21:29.307Z,2.48
2023-02-15T19:24:00.036Z,2.54
2023-02-15T19:26:44.438Z,2.58
2023-02-15T19:29:16.897Z,2.46
2023-02-15T19:31:45.012Z,2.60
2023-02-15T19:34:17.808Z,2.59
2023-02-15T19:36:49.928Z,2.51
2023-02-15T19:39:27.185Z,2.54
2023-02-15T19:41:55.537Z,2.56
2023-02-15T19:44:23.721Z,2.54
2023-02-15T19:46:51.945Z,2.53
2023-02-15T19:49:19.903Z,2.53
2023-02-15T19:51:49.530Z,2.51
2023-02-15T19:54:30.670Z,2.44
2023-02-15T19:56:59.138Z,2.36
2023-02-15T19:59:28.884Z,2.53
2023-02-15T20:01:57.568Z,2.49
2023-02-15T20:04:26.020Z,2.43
2023-02-15T20:06:57.972Z,2.37
2023-02-15T20:09:29.617Z,2.35
2023-02-15T20:11:57.681Z,2.35
2023-02-15T20:14:25.643Z,2.36
2023-02-15T20:16:53.659Z,2.37
2023-02-15T20:19:21.613Z,2.41
2023-02-15T20:21:54.333Z,2.32
2023-02-15T20:24:27.454Z,2.36
2023-02-15T20:26:55.404Z,2.34
2023-02-15T20:29:23.218Z,2.07
2023-02-15T20:31:54.069Z,1.97
2023-02-15T20:34:23.105Z,1.93
2023-02-15T20:36:51.236Z,1.91
2023-02-15T20:39:20.417Z,1.82
2023-02-15T20:41:49.821Z,1.79
2023-02-15T20:44:23.561Z,1.69
2023-02-15T20:46:53.357Z,1.60
2023-02-15T20:49:21.400Z,1.60
2023-02-15T20:51:49.495Z,1.61
2023-02-15T20:54:18.770Z,1.55
2023-02-15T20:56:47.032Z,1.51
2023-02-15T20:59:25.739Z,1.51
2023-02-15T21:01:59.010Z,1.56
2023-02-15T21:04:31.394Z,1.61
2023-02-15T21:06:59.920Z,1.63
2023-02-15T21:09:28.485Z,1.71
2023-02-15T21:11:59.014Z,1.77
2023-02-15T21:14:30.078Z,1.79
2023-02-15T21:16:58.067Z,1.78
2023-02-15T21:19:26.129Z,1.68
2023-02-15T21:21:54.578Z,1.67
2023-02-15T21:24:25.427Z,1.70
2023-02-15T21:26:54.264Z,1.73
2023-02-15T21:29:24.720Z,1.73
2023-02-15T21:31:54.514Z,1.74
2023-02-15T21:34:22.554Z,1.80
2023-02-15T21:36:51.783Z,1.85
2023-02-15T21:39:22.299Z,1.82
2023-02-15T21:42:09.752Z,1.86
2023-02-15T21:44:55.530Z,1.86
2023-02-15T21:47:45.123Z,1.82
2023-02-15T21:50:32.412Z,1.75
2023-02-15T21:53:00.535Z,1.77
2023-02-15T21:55:28.407Z,1.76
2023-02-15T21:57:56.310Z,1.76
2023-02-15T22:00:26.008Z,1.76
2023-02-15T22:02:56.815Z,1.72
2023-02-15T22:05:27.823Z,1.65
2023-02-15T22:07:57.106Z,1.70
2023-02-15T22:10:27.417Z,1.64
2023-02-15T22:12:56.377Z,1.55
2023-02-15T22:15:25.832Z,1.57
2023-02-15T22:17:55.120Z,1.61
2023-02-15T22:20:25.173Z,1.61
2023-02-15T22:22:53.924Z,1.60
2023-02-15T22:25:24.626Z,1.58
2023-02-15T22:27:54.418Z,1.55
2023-02-15T22:30:26.690Z,1.53
2023-02-15T22:32:57.571Z,1.50
2023-02-15T22:35:27.738Z,1.53
2023-02-15T22:37:56.326Z,1.48
2023-02-15T22:40:29.060Z,1.45
2023-02-15T22:42:58.891Z,1.39
2023-02-15T22:45:28.167Z,1.41
2023-02-15T22:48:00.439Z,1.42
2023-02-15T22:50:30.933Z,1.40
2023-02-15T22:53:01.690Z,1.47
2023-02-15T22:55:33.645Z,1.55
2023-02-15T22:58:02.113Z,1.59
2023-02-15T23:00:34.775Z,1.59
2023-02-15T23:03:14.672Z,1.50
2023-02-15T23:05:42.516Z,1.48
2023-02-15T23:08:11.156Z,1.51
2023-02-15T23:10:40.524Z,1.52
2023-02-15T23:13:25.811Z,1.42
2023-02-15T23:15:58.768Z,1.45
2023-02-15T23:18:31.905Z,1.48
2023-02-15T23:21:02.253Z,1.49
2023-02-15T23:23:33.724Z,1.50
2023-02-15T23:26:04.227Z,1.50
2023-02-15T23:28:35.969Z,1.42
2023-02-15T23:31:04.627Z,1.31
2023-02-15T23:33:35.969Z,1.38
2023-02-15T23:36:05.012Z,1.47
2023-02-15T23:38:33.785Z,1.36
2023-02-15T23:41:21.190Z,1.58
2023-02-15T23:43:53.323Z,1.63
2023-02-15T23:46:28.335Z,1.61
2023-02-15T23:48:57.983Z,1.66
2023-02-15T23:51:30.697Z,1.73
2023-02-15T23:53:58.863Z,1.75
2023-02-15T23:56:26.856Z,1.74
2023-02-15T23:58:54.866Z,1.72
